sensor_id;sensor_type;location;lat;lon;timestamp;temperature;humidity
29817;DHT22;16805;52.956;5.906;2023-09-19T00:52:53;15.90;99.90
29817;DHT22;16805;52.956;5.906;2023-09-19T01:57:14;15.50;99.90
29817;DHT22;16805;52.956;5.906;2023-09-19T02:00:01;15.60;99.90
29817;DHT22;16805;52.956;5.906;2023-09-19T02:02:40;15.50;99.90
29817;DHT22;16805;52.956;5.906;2023-09-19T02:05:22;15.60;99.90
29817;DHT22;16805;52.956;5.906;2023-09-19T02:08:15;15.50;99.90
29817;DHT22;16805;52.956;5.906;2023-09-19T02:10:45;15.50;99.90
29817;DHT22;16805;52.956;5.906;2023-09-19T02:13:20;15.50;99.90
29817;DHT22;16805;52.956;5.906;2023-09-19T02:15:58;15.50;99.90
29817;DHT22;16805;52.956;5.906;2023-09-19T02:18:27;15.50;99.90
29817;DHT22;16805;52.956;5.906;2023-09-19T02:21:03;15.50;99.90
29817;DHT22;16805;52.956;5.906;2023-09-19T02:23:35;15.50;99.90
29817;DHT22;16805;52.956;5.906;2023-09-19T02:26:45;15.60;99.90
29817;DHT22;16805;52.956;5.906;2023-09-19T02:29:42;15.60;99.90
29817;DHT22;16805;52.956;5.906;2023-09-19T02:32:09;15.60;99.90
29817;DHT22;16805;52.956;5.906;2023-09-19T02:34:37;15.60;99.90
29817;DHT22;16805;52.956;5.906;2023-09-19T02:37:19;15.50;99.90
29817;DHT22;16805;52.956;5.906;2023-09-19T02:40:01;15.60;99.90
29817;DHT22;16805;52.956;5.906;2023-09-19T02:42:55;15.60;99.90
29817;DHT22;16805;52.956;5.906;2023-09-19T02:45:58;15.60;99.90
29817;DHT22;16805;52.956;5.906;2023-09-19T02:48:42;15.60;99.90
29817;DHT22;16805;52.956;5.906;2023-09-19T02:51:23;15.60;99.90
29817;DHT22;16805;52.956;5.906;2023-09-19T02:53:59;15.50;99.90
29817;DHT22;16805;52.956;5.906;2023-09-19T02:56:27;15.50;99.90
29817;DHT22;16805;52.956;5.906;2023-09-19T02:59:02;15.50;99.90
29817;DHT22;16805;52.956;5.906;2023-09-19T03:01:35;15.50;99.90
29817;DHT22;16805;52.956;5.906;2023-09-19T03:04:04;15.50;99.90
29817;DHT22;16805;52.956;5.906;2023-09-19T03:06:35;15.50;99.90
29817;DHT22;16805;52.956;5.906;2023-09-19T03:09:02;15.50;99.90
29817;DHT22;16805;52.956;5.906;2023-09-19T03:11:37;15.50;99.90
29817;DHT22;16805;52.956;5.906;2023-09-19T03:14:15;15.50;99.90
29817;DHT22;16805;52.956;5.906;2023-09-19T03:17:34;15.50;99.90
29817;DHT22;16805;52.956;5.906;2023-09-19T03:20:07;15.40;99.90
29817;DHT22;16805;52.956;5.906;2023-09-19T03:22:35;15.40;99.90
29817;DHT22;16805;52.956;5.906;2023-09-19T03:25:06;15.40;99.90
29817;DHT22;16805;52.956;5.906;2023-09-19T03:27:38;15.50;99.90
29817;DHT22;16805;52.956;5.906;2023-09-19T03:30:08;15.50;99.90
29817;DHT22;16805;52.956;5.906;2023-09-19T03:32:46;15.40;99.90
29817;DHT22;16805;52.956;5.906;2023-09-19T03:35:16;15.50;99.90
29817;DHT22;16805;52.956;5.906;2023-09-19T03:37:49;15.40;99.90
29817;DHT22;16805;52.956;5.906;2023-09-19T03:40:21;15.50;99.90
29817;DHT22;16805;52.956;5.906;2023-09-19T03:42:49;15.50;99.90
29817;DHT22;16805;52.956;5.906;2023-09-19T03:45:21;15.50;99.90
29817;DHT22;16805;52.956;5.906;2023-09-19T03:47:54;15.50;99.90
29817;DHT22;16805;52.956;5.906;2023-09-19T03:50:30;15.50;99.90
29817;DHT22;16805;52.956;5.906;2023-09-19T04:01:55;15.50;99.90
29817;DHT22;16805;52.956;5.906;2023-09-19T04:05:03;15.60;99.90
29817;DHT22;16805;52.956;5.906;2023-09-19T04:08:10;15.50;99.90
29817;DHT22;16805;52.956;5.906;2023-09-19T04:11:04;15.50;99.90
29817;DHT22;16805;52.956;5.906;2023-09-19T04:13:58;15.50;99.90
29817;DHT22;16805;52.956;5.906;2023-09-19T04:16:28;15.50;99.90
29817;DHT22;16805;52.956;5.906;2023-09-19T04:19:17;15.50;99.90
29817;DHT22;16805;52.956;5.906;2023-09-19T04:22:12;15.50;99.90
29817;DHT22;16805;52.956;5.906;2023-09-19T04:24:49;15.50;99.90
29817;DHT22;16805;52.956;5.906;2023-09-19T04:27:33;15.50;99.90
29817;DHT22;16805;52.956;5.906;2023-09-19T04:30:01;15.50;99.90
29817;DHT22;16805;52.956;5.906;2023-09-19T04:32:42;15.50;99.90
29817;DHT22;16805;52.956;5.906;2023-09-19T04:35:55;15.40;99.90
29817;DHT22;16805;52.956;5.906;2023-09-19T04:38:26;15.40;99.90
29817;DHT22;16805;52.956;5.906;2023-09-19T04:40:58;15.40;99.90
29817;DHT22;16805;52.956;5.906;2023-09-19T04:43:29;15.40;99.90
29817;DHT22;16805;52.956;5.906;2023-09-19T04:46:16;15.40;99.90
29817;DHT22;16805;52.956;5.906;2023-09-19T04:49:24;15.40;99.90
29817;DHT22;16805;52.956;5.906;2023-09-19T04:52:13;15.40;99.90
29817;DHT22;16805;52.956;5.906;2023-09-19T04:55:05;15.40;99.90
29817;DHT22;16805;52.956;5.906;2023-09-19T04:57:31;15.40;99.90
29817;DHT22;16805;52.956;5.906;2023-09-19T05:00:09;15.40;99.90
29817;DHT22;16805;52.956;5.906;2023-09-19T05:02:59;15.40;99.90
29817;DHT22;16805;52.956;5.906;2023-09-19T05:05:36;15.40;99.90
29817;DHT22;16805;52.956;5.906;2023-09-19T05:08:10;15.40;99.90
29817;DHT22;16805;52.956;5.906;2023-09-19T05:10:42;15.30;99.90
29817;DHT22;16805;52.956;5.906;2023-09-19T05:13:29;15.40;99.90
29817;DHT22;16805;52.956;5.906;2023-09-19T05:16:00;15.40;99.90
29817;DHT22;16805;52.956;5.906;2023-09-19T05:18:30;15.40;99.90
29817;DHT22;16805;52.956;5.906;2023-09-19T05:21:03;15.40;99.90
29817;DHT22;16805;52.956;5.906;2023-09-19T05:23:36;15.40;99.90
29817;DHT22;16805;52.956;5.906;2023-09-19T05:26:07;15.40;99.90
29817;DHT22;16805;52.956;5.906;2023-09-19T05:29:00;15.40;99.90
29817;DHT22;16805;52.956;5.906;2023-09-19T05:31:41;15.40;99.90
29817;DHT22;16805;52.956;5.906;2023-09-19T05:34:17;15.40;99.90
29817;DHT22;16805;52.956;5.906;2023-09-19T05:36:45;15.40;99.90
29817;DHT22;16805;52.956;5.906;2023-09-19T05:39:12;15.40;99.90
29817;DHT22;16805;52.956;5.906;2023-09-19T05:41:38;15.40;99.90
29817;DHT22;16805;52.956;5.906;2023-09-19T05:44:05;15.50;99.90
29817;DHT22;16805;52.956;5.906;2023-09-19T05:46:32;15.40;99.90
29817;DHT22;16805;52.956;5.906;2023-09-19T05:48:58;15.40;99.90
29817;DHT22;16805;52.956;5.906;2023-09-19T05:51:25;15.40;99.90
29817;DHT22;16805;52.956;5.906;2023-09-19T05:53:54;15.40;99.90
29817;DHT22;16805;52.956;5.906;2023-09-19T05:56:20;15.40;99.90
29817;DHT22;16805;52.956;5.906;2023-09-19T05:58:46;15.40;99.90
29817;DHT22;16805;52.956;5.906;2023-09-19T06:01:12;15.50;99.90
29817;DHT22;16805;52.956;5.906;2023-09-19T06:03:38;15.40;99.90
29817;DHT22;16805;52.956;5.906;2023-09-19T06:06:04;15.50;99.90
29817;DHT22;16805;52.956;5.906;2023-09-19T06:08:32;15.50;99.90
29817;DHT22;16805;52.956;5.906;2023-09-19T06:10:59;15.50;99.90
29817;DHT22;16805;52.956;5.906;2023-09-19T06:13:27;15.60;99.90
29817;DHT22;16805;52.956;5.906;2023-09-19T06:15:54;15.60;99.90
29817;DHT22;16805;52.956;5.906;2023-09-19T06:18:20;15.70;99.90
29817;DHT22;16805;52.956;5.906;2023-09-19T06:20:48;15.80;99.90
29817;DHT22;16805;52.956;5.906;2023-09-19T06:23:17;15.80;99.90
29817;DHT22;16805;52.956;5.906;2023-09-19T06:25:43;15.90;99.90
29817;DHT22;16805;52.956;5.906;2023-09-19T06:28:09;15.90;99.90
29817;DHT22;16805;52.956;5.906;2023-09-19T06:30:38;15.90;99.90
29817;DHT22;16805;52.956;5.906;2023-09-19T06:33:07;15.90;99.90
29817;DHT22;16805;52.956;5.906;2023-09-19T06:35:33;15.90;99.90
29817;DHT22;16805;52.956;5.906;2023-09-19T06:38:03;15.90;99.90
29817;DHT22;16805;52.956;5.906;2023-09-19T06:40:29;15.90;99.90
29817;DHT22;16805;52.956;5.906;2023-09-19T06:42:56;16.00;99.90
29817;DHT22;16805;52.956;5.906;2023-09-19T06:45:22;16.10;99.90
29817;DHT22;16805;52.956;5.906;2023-09-19T06:47:51;16.20;99.90
29817;DHT22;16805;52.956;5.906;2023-09-19T06:50:17;16.40;99.90
29817;DHT22;16805;52.956;5.906;2023-09-19T06:52:44;16.50;99.90
29817;DHT22;16805;52.956;5.906;2023-09-19T06:55:11;16.70;99.90
29817;DHT22;16805;52.956;5.906;2023-09-19T06:57:39;16.90;99.90
29817;DHT22;16805;52.956;5.906;2023-09-19T07:00:09;16.90;99.90
29817;DHT22;16805;52.956;5.906;2023-09-19T07:02:44;16.90;99.90
29817;DHT22;16805;52.956;5.906;2023-09-19T07:05:10;16.90;99.90
29817;DHT22;16805;52.956;5.906;2023-09-19T07:07:37;16.90;99.90
29817;DHT22;16805;52.956;5.906;2023-09-19T07:10:03;16.80;99.90
29817;DHT22;16805;52.956;5.906;2023-09-19T07:12:33;16.90;99.90
29817;DHT22;16805;52.956;5.906;2023-09-19T07:15:00;16.90;99.90
29817;DHT22;16805;52.956;5.906;2023-09-19T07:17:25;16.80;99.90
29817;DHT22;16805;52.956;5.906;2023-09-19T07:19:51;16.80;99.90
29817;DHT22;16805;52.956;5.906;2023-09-19T07:22:17;16.90;99.90
29817;DHT22;16805;52.956;5.906;2023-09-19T07:24:43;16.80;99.90
29817;DHT22;16805;52.956;5.906;2023-09-19T07:27:08;16.90;99.90
29817;DHT22;16805;52.956;5.906;2023-09-19T07:29:34;16.90;99.90
29817;DHT22;16805;52.956;5.906;2023-09-19T07:32:00;16.90;99.90
29817;DHT22;16805;52.956;5.906;2023-09-19T07:34:25;17.00;99.90
29817;DHT22;16805;52.956;5.906;2023-09-19T07:36:51;17.00;99.90
29817;DHT22;16805;52.956;5.906;2023-09-19T07:39:17;17.00;99.90
29817;DHT22;16805;52.956;5.906;2023-09-19T07:41:43;17.00;99.90
29817;DHT22;16805;52.956;5.906;2023-09-19T07:44:09;17.00;99.90
29817;DHT22;16805;52.956;5.906;2023-09-19T07:46:36;17.00;99.90
29817;DHT22;16805;52.956;5.906;2023-09-19T07:49:01;17.00;99.90
29817;DHT22;16805;52.956;5.906;2023-09-19T07:51:27;16.90;99.90
29817;DHT22;16805;52.956;5.906;2023-09-19T07:53:53;16.90;99.90
29817;DHT22;16805;52.956;5.906;2023-09-19T07:56:20;16.90;99.90
29817;DHT22;16805;52.956;5.906;2023-09-19T07:58:46;16.80;99.90
29817;DHT22;16805;52.956;5.906;2023-09-19T08:01:12;16.80;99.90
29817;DHT22;16805;52.956;5.906;2023-09-19T08:03:39;16.80;99.90
29817;DHT22;16805;52.956;5.906;2023-09-19T08:06:09;16.80;99.90
29817;DHT22;16805;52.956;5.906;2023-09-19T08:08:36;16.70;99.90
29817;DHT22;16805;52.956;5.906;2023-09-19T08:11:06;16.70;99.90
29817;DHT22;16805;52.956;5.906;2023-09-19T08:13:39;16.80;99.90
29817;DHT22;16805;52.956;5.906;2023-09-19T08:16:17;16.80;99.90
29817;DHT22;16805;52.956;5.906;2023-09-19T08:18:48;16.70;99.90
29817;DHT22;16805;52.956;5.906;2023-09-19T08:21:17;16.70;99.90
29817;DHT22;16805;52.956;5.906;2023-09-19T08:23:44;16.80;99.90
29817;DHT22;16805;52.956;5.906;2023-09-19T08:26:10;16.80;99.90
29817;DHT22;16805;52.956;5.906;2023-09-19T08:28:36;16.80;99.90
29817;DHT22;16805;52.956;5.906;2023-09-19T08:31:05;16.80;99.90
29817;DHT22;16805;52.956;5.906;2023-09-19T08:33:33;16.90;99.90
29817;DHT22;16805;52.956;5.906;2023-09-19T08:35:59;16.90;99.90
29817;DHT22;16805;52.956;5.906;2023-09-19T08:38:25;17.00;99.90
29817;DHT22;16805;52.956;5.906;2023-09-19T08:40:57;17.10;99.90
29817;DHT22;16805;52.956;5.906;2023-09-19T08:43:25;17.30;99.90
29817;DHT22;16805;52.956;5.906;2023-09-19T08:46:04;17.40;99.90
29817;DHT22;16805;52.956;5.906;2023-09-19T08:48:34;17.50;99.90
29817;DHT22;16805;52.956;5.906;2023-09-19T08:51:16;17.70;99.90
29817;DHT22;16805;52.956;5.906;2023-09-19T08:54:03;17.70;99.90
29817;DHT22;16805;52.956;5.906;2023-09-19T08:56:30;17.90;99.90
29817;DHT22;16805;52.956;5.906;2023-09-19T08:59:02;18.00;99.90
29817;DHT22;16805;52.956;5.906;2023-09-19T09:01:28;18.10;99.90
29817;DHT22;16805;52.956;5.906;2023-09-19T09:03:55;18.30;99.90
29817;DHT22;16805;52.956;5.906;2023-09-19T09:06:23;18.30;99.90
29817;DHT22;16805;52.956;5.906;2023-09-19T09:08:51;18.50;99.90
29817;DHT22;16805;52.956;5.906;2023-09-19T09:11:18;18.50;99.90
29817;DHT22;16805;52.956;5.906;2023-09-19T09:13:44;18.60;99.90
29817;DHT22;16805;52.956;5.906;2023-09-19T09:16:11;18.60;99.90
29817;DHT22;16805;52.956;5.906;2023-09-19T09:18:39;18.50;99.90
29817;DHT22;16805;52.956;5.906;2023-09-19T09:21:05;18.50;99.90
29817;DHT22;16805;52.956;5.906;2023-09-19T09:23:32;18.30;99.90
29817;DHT22;16805;52.956;5.906;2023-09-19T09:26:01;18.30;99.90
29817;DHT22;16805;52.956;5.906;2023-09-19T09:28:33;18.20;99.90
29817;DHT22;16805;52.956;5.906;2023-09-19T09:31:00;18.20;99.90
29817;DHT22;16805;52.956;5.906;2023-09-19T09:33:34;18.20;99.90
29817;DHT22;16805;52.956;5.906;2023-09-19T09:36:01;18.30;99.90
29817;DHT22;16805;52.956;5.906;2023-09-19T09:38:29;18.30;99.90
29817;DHT22;16805;52.956;5.906;2023-09-19T09:40:59;18.30;99.90
29817;DHT22;16805;52.956;5.906;2023-09-19T09:43:37;18.40;99.90
29817;DHT22;16805;52.956;5.906;2023-09-19T09:46:17;18.50;99.90
29817;DHT22;16805;52.956;5.906;2023-09-19T09:48:45;18.60;99.90
29817;DHT22;16805;52.956;5.906;2023-09-19T09:51:31;18.70;99.90
29817;DHT22;16805;52.956;5.906;2023-09-19T09:54:18;18.70;99.90
29817;DHT22;16805;52.956;5.906;2023-09-19T09:57:00;18.70;99.90
29817;DHT22;16805;52.956;5.906;2023-09-19T10:04:58;18.70;99.90
29817;DHT22;16805;52.956;5.906;2023-09-19T10:07:32;18.70;99.90
29817;DHT22;16805;52.956;5.906;2023-09-19T10:10:04;18.60;99.90
29817;DHT22;16805;52.956;5.906;2023-09-19T10:12:46;18.50;99.90
29817;DHT22;16805;52.956;5.906;2023-09-19T10:15:17;18.50;99.90
29817;DHT22;16805;52.956;5.906;2023-09-19T10:17:46;18.50;99.90
29817;DHT22;16805;52.956;5.906;2023-09-19T10:20:13;18.60;99.90
29817;DHT22;16805;52.956;5.906;2023-09-19T10:22:59;18.60;99.90
29817;DHT22;16805;52.956;5.906;2023-09-19T10:25:26;18.50;99.90
29817;DHT22;16805;52.956;5.906;2023-09-19T10:27:54;18.60;99.90
29817;DHT22;16805;52.956;5.906;2023-09-19T10:30:24;18.60;99.90
29817;DHT22;16805;52.956;5.906;2023-09-19T10:33:00;18.60;99.90
29817;DHT22;16805;52.956;5.906;2023-09-19T10:35:26;18.50;99.90
29817;DHT22;16805;52.956;5.906;2023-09-19T10:37:54;18.50;99.90
29817;DHT22;16805;52.956;5.906;2023-09-19T10:40:22;18.40;99.90
29817;DHT22;16805;52.956;5.906;2023-09-19T10:43:01;18.40;99.90
29817;DHT22;16805;52.956;5.906;2023-09-19T10:45:34;18.30;99.90
29817;DHT22;16805;52.956;5.906;2023-09-19T10:48:01;18.30;99.90
29817;DHT22;16805;52.956;5.906;2023-09-19T10:50:32;18.30;99.90
29817;DHT22;16805;52.956;5.906;2023-09-19T10:53:02;18.30;99.90
29817;DHT22;16805;52.956;5.906;2023-09-19T10:55:32;18.30;99.90
29817;DHT22;16805;52.956;5.906;2023-09-19T10:57:59;18.30;99.90
29817;DHT22;16805;52.956;5.906;2023-09-19T11:00:26;18.20;99.90
29817;DHT22;16805;52.956;5.906;2023-09-19T11:03:16;18.20;99.90
29817;DHT22;16805;52.956;5.906;2023-09-19T11:06:09;18.20;99.90
29817;DHT22;16805;52.956;5.906;2023-09-19T11:11:45;18.30;99.90
29817;DHT22;16805;52.956;5.906;2023-09-19T11:30:45;18.40;99.90
29817;DHT22;16805;52.956;5.906;2023-09-19T11:33:30;18.40;99.90
29817;DHT22;16805;52.956;5.906;2023-09-19T11:36:08;18.30;99.90
29817;DHT22;16805;52.956;5.906;2023-09-19T11:43:52;18.30;99.90
29817;DHT22;16805;52.956;5.906;2023-09-19T11:46:21;18.20;99.90
29817;DHT22;16805;52.956;5.906;2023-09-19T11:48:51;18.20;99.90
29817;DHT22;16805;52.956;5.906;2023-09-19T11:51:22;18.20;99.90
29817;DHT22;16805;52.956;5.906;2023-09-19T11:53:56;18.20;99.90
29817;DHT22;16805;52.956;5.906;2023-09-19T11:56:25;18.20;99.90
29817;DHT22;16805;52.956;5.906;2023-09-19T11:58:56;18.20;99.90
29817;DHT22;16805;52.956;5.906;2023-09-19T12:01:32;18.20;99.90
29817;DHT22;16805;52.956;5.906;2023-09-19T12:04:01;18.20;99.90
29817;DHT22;16805;52.956;5.906;2023-09-19T12:06:28;18.20;99.90
29817;DHT22;16805;52.956;5.906;2023-09-19T12:09:02;18.20;99.90
29817;DHT22;16805;52.956;5.906;2023-09-19T12:11:32;18.20;99.90
29817;DHT22;16805;52.956;5.906;2023-09-19T12:13:59;18.20;99.90
29817;DHT22;16805;52.956;5.906;2023-09-19T12:16:26;18.20;99.90
29817;DHT22;16805;52.956;5.906;2023-09-19T12:18:56;18.20;99.90
29817;DHT22;16805;52.956;5.906;2023-09-19T12:23:58;18.30;99.90
29817;DHT22;16805;52.956;5.906;2023-09-19T12:26:26;18.30;99.90
29817;DHT22;16805;52.956;5.906;2023-09-19T12:29:20;18.30;99.90
29817;DHT22;16805;52.956;5.906;2023-09-19T12:34:31;18.40;99.90
29817;DHT22;16805;52.956;5.906;2023-09-19T12:39:52;18.40;99.90
29817;DHT22;16805;52.956;5.906;2023-09-19T12:42:36;18.40;99.90
29817;DHT22;16805;52.956;5.906;2023-09-19T12:45:23;18.40;99.90
29817;DHT22;16805;52.956;5.906;2023-09-19T12:48:17;18.40;99.90
29817;DHT22;16805;52.956;5.906;2023-09-19T12:51:05;18.40;99.90
29817;DHT22;16805;52.956;5.906;2023-09-19T12:54:03;18.40;99.90
29817;DHT22;16805;52.956;5.906;2023-09-19T12:56:42;18.40;99.90
29817;DHT22;16805;52.956;5.906;2023-09-19T12:59:29;18.40;99.90
29817;DHT22;16805;52.956;5.906;2023-09-19T13:02:33;18.40;99.90
29817;DHT22;16805;52.956;5.906;2023-09-19T13:05:07;18.40;99.90
29817;DHT22;16805;52.956;5.906;2023-09-19T13:07:46;18.30;99.90
29817;DHT22;16805;52.956;5.906;2023-09-19T13:10:27;18.30;99.90
29817;DHT22;16805;52.956;5.906;2023-09-19T13:12:55;18.30;99.90
29817;DHT22;16805;52.956;5.906;2023-09-19T13:15:52;18.30;99.90
29817;DHT22;16805;52.956;5.906;2023-09-19T13:18:19;18.40;99.90
29817;DHT22;16805;52.956;5.906;2023-09-19T13:21:13;18.40;99.90
29817;DHT22;16805;52.956;5.906;2023-09-19T13:23:53;18.30;99.90
29817;DHT22;16805;52.956;5.906;2023-09-19T13:26:26;18.40;99.90
29817;DHT22;16805;52.956;5.906;2023-09-19T13:28:54;18.40;99.90
29817;DHT22;16805;52.956;5.906;2023-09-19T13:31:24;18.40;99.90
29817;DHT22;16805;52.956;5.906;2023-09-19T13:33:53;18.50;99.90
29817;DHT22;16805;52.956;5.906;2023-09-19T13:36:29;18.50;99.90
29817;DHT22;16805;52.956;5.906;2023-09-19T13:38:57;18.50;99.90
29817;DHT22;16805;52.956;5.906;2023-09-19T13:41:24;18.50;99.90
29817;DHT22;16805;52.956;5.906;2023-09-19T13:43:52;18.50;99.90
29817;DHT22;16805;52.956;5.906;2023-09-19T13:46:20;18.50;99.90
29817;DHT22;16805;52.956;5.906;2023-09-19T13:48:52;18.50;99.90
29817;DHT22;16805;52.956;5.906;2023-09-19T13:51:21;18.50;99.90
29817;DHT22;16805;52.956;5.906;2023-09-19T13:53:52;18.50;99.90
29817;DHT22;16805;52.956;5.906;2023-09-19T13:56:18;18.50;99.90
29817;DHT22;16805;52.956;5.906;2023-09-19T13:58:47;18.50;99.90
29817;DHT22;16805;52.956;5.906;2023-09-19T14:01:16;18.50;99.90
29817;DHT22;16805;52.956;5.906;2023-09-19T14:03:45;18.40;99.90
29817;DHT22;16805;52.956;5.906;2023-09-19T14:06:17;18.50;99.90
29817;DHT22;16805;52.956;5.906;2023-09-19T14:08:49;18.40;99.90
29817;DHT22;16805;52.956;5.906;2023-09-19T14:11:27;18.40;99.90
29817;DHT22;16805;52.956;5.906;2023-09-19T14:13:53;18.40;99.90
29817;DHT22;16805;52.956;5.906;2023-09-19T14:16:19;18.40;99.90
29817;DHT22;16805;52.956;5.906;2023-09-19T14:18:47;18.40;99.90
29817;DHT22;16805;52.956;5.906;2023-09-19T14:21:13;18.40;99.90
29817;DHT22;16805;52.956;5.906;2023-09-19T14:23:40;18.40;99.90
29817;DHT22;16805;52.956;5.906;2023-09-19T14:26:07;18.40;99.90
29817;DHT22;16805;52.956;5.906;2023-09-19T14:28:33;18.40;99.90
29817;DHT22;16805;52.956;5.906;2023-09-19T14:31:09;18.40;99.90
29817;DHT22;16805;52.956;5.906;2023-09-19T14:33:35;18.40;99.90
29817;DHT22;16805;52.956;5.906;2023-09-19T14:36:06;18.40;99.90
29817;DHT22;16805;52.956;5.906;2023-09-19T14:38:33;18.50;99.90
29817;DHT22;16805;52.956;5.906;2023-09-19T14:41:03;18.40;99.90
29817;DHT22;16805;52.956;5.906;2023-09-19T14:43:30;18.40;99.90
29817;DHT22;16805;52.956;5.906;2023-09-19T14:45:56;18.40;99.90
29817;DHT22;16805;52.956;5.906;2023-09-19T14:48:25;18.40;99.90
29817;DHT22;16805;52.956;5.906;2023-09-19T14:50:52;18.40;99.90
29817;DHT22;16805;52.956;5.906;2023-09-19T14:53:18;18.30;99.90
29817;DHT22;16805;52.956;5.906;2023-09-19T14:55:44;18.30;99.90
29817;DHT22;16805;52.956;5.906;2023-09-19T14:58:10;18.30;99.90
29817;DHT22;16805;52.956;5.906;2023-09-19T15:00:37;18.30;99.90
29817;DHT22;16805;52.956;5.906;2023-09-19T15:03:03;18.30;99.90
29817;DHT22;16805;52.956;5.906;2023-09-19T15:05:29;18.30;99.90
29817;DHT22;16805;52.956;5.906;2023-09-19T15:07:56;18.20;99.90
29817;DHT22;16805;52.956;5.906;2023-09-19T15:10:23;18.20;99.90
29817;DHT22;16805;52.956;5.906;2023-09-19T15:12:48;18.20;99.90
29817;DHT22;16805;52.956;5.906;2023-09-19T15:15:14;18.20;99.90
29817;DHT22;16805;52.956;5.906;2023-09-19T15:17:40;18.20;99.90
29817;DHT22;16805;52.956;5.906;2023-09-19T15:20:07;18.10;99.90
29817;DHT22;16805;52.956;5.906;2023-09-19T15:22:33;18.10;99.90
29817;DHT22;16805;52.956;5.906;2023-09-19T15:25:00;18.10;99.90
29817;DHT22;16805;52.956;5.906;2023-09-19T15:27:28;18.10;99.90
29817;DHT22;16805;52.956;5.906;2023-09-19T15:29:56;18.10;99.90
29817;DHT22;16805;52.956;5.906;2023-09-19T15:32:24;18.00;99.90
29817;DHT22;16805;52.956;5.906;2023-09-19T15:34:50;18.00;99.90
29817;DHT22;16805;52.956;5.906;2023-09-19T15:37:15;17.90;99.90
29817;DHT22;16805;52.956;5.906;2023-09-19T15:39:41;17.90;99.90
29817;DHT22;16805;52.956;5.906;2023-09-19T15:42:12;17.90;99.90
29817;DHT22;16805;52.956;5.906;2023-09-19T15:44:38;17.90;99.90
29817;DHT22;16805;52.956;5.906;2023-09-19T15:47:04;17.80;99.90
29817;DHT22;16805;52.956;5.906;2023-09-19T15:49:34;17.80;99.90
29817;DHT22;16805;52.956;5.906;2023-09-19T15:52:00;17.80;99.90
29817;DHT22;16805;52.956;5.906;2023-09-19T15:54:26;17.70;99.90
29817;DHT22;16805;52.956;5.906;2023-09-19T15:56:54;17.70;99.90
29817;DHT22;16805;52.956;5.906;2023-09-19T15:59:21;17.70;99.90
29817;DHT22;16805;52.956;5.906;2023-09-19T16:01:47;17.70;99.90
29817;DHT22;16805;52.956;5.906;2023-09-19T16:04:14;17.60;99.90
29817;DHT22;16805;52.956;5.906;2023-09-19T16:06:42;17.60;99.90
29817;DHT22;16805;52.956;5.906;2023-09-19T16:09:08;17.50;99.90
29817;DHT22;16805;52.956;5.906;2023-09-19T16:11:35;17.50;99.90
29817;DHT22;16805;52.956;5.906;2023-09-19T16:14:03;17.50;99.90
29817;DHT22;16805;52.956;5.906;2023-09-19T16:16:30;17.40;99.90
29817;DHT22;16805;52.956;5.906;2023-09-19T16:18:59;17.40;99.90
29817;DHT22;16805;52.956;5.906;2023-09-19T16:21:30;17.40;99.90
29817;DHT22;16805;52.956;5.906;2023-09-19T16:23:58;17.40;99.90
29817;DHT22;16805;52.956;5.906;2023-09-19T16:26:26;17.40;99.90
29817;DHT22;16805;52.956;5.906;2023-09-19T16:28:54;17.30;99.90
29817;DHT22;16805;52.956;5.906;2023-09-19T16:31:26;17.30;99.90
29817;DHT22;16805;52.956;5.906;2023-09-19T16:33:52;17.20;99.90
29817;DHT22;16805;52.956;5.906;2023-09-19T16:36:19;17.20;99.90
29817;DHT22;16805;52.956;5.906;2023-09-19T16:38:47;17.20;99.90
29817;DHT22;16805;52.956;5.906;2023-09-19T16:41:14;17.20;99.90
29817;DHT22;16805;52.956;5.906;2023-09-19T16:43:40;17.20;99.90
29817;DHT22;16805;52.956;5.906;2023-09-19T16:46:11;17.10;99.90
29817;DHT22;16805;52.956;5.906;2023-09-19T16:48:41;17.20;99.90
29817;DHT22;16805;52.956;5.906;2023-09-19T16:51:10;17.10;99.90
29817;DHT22;16805;52.956;5.906;2023-09-19T16:53:37;17.10;99.90
29817;DHT22;16805;52.956;5.906;2023-09-19T16:56:04;17.10;99.90
29817;DHT22;16805;52.956;5.906;2023-09-19T16:58:32;17.10;99.90
29817;DHT22;16805;52.956;5.906;2023-09-19T17:00:59;17.10;99.90
29817;DHT22;16805;52.956;5.906;2023-09-19T17:03:25;17.10;99.90
29817;DHT22;16805;52.956;5.906;2023-09-19T17:05:51;17.10;99.90
29817;DHT22;16805;52.956;5.906;2023-09-19T17:08:19;17.10;99.90
29817;DHT22;16805;52.956;5.906;2023-09-19T17:10:45;17.10;99.90
29817;DHT22;16805;52.956;5.906;2023-09-19T17:13:12;17.10;99.90
29817;DHT22;16805;52.956;5.906;2023-09-19T17:15:37;17.10;99.90
29817;DHT22;16805;52.956;5.906;2023-09-19T17:18:04;17.10;99.90
29817;DHT22;16805;52.956;5.906;2023-09-19T17:20:33;17.10;99.90
29817;DHT22;16805;52.956;5.906;2023-09-19T17:22:58;17.10;99.90
29817;DHT22;16805;52.956;5.906;2023-09-19T17:25:24;17.10;99.90
29817;DHT22;16805;52.956;5.906;2023-09-19T17:27:53;17.10;99.90
29817;DHT22;16805;52.956;5.906;2023-09-19T17:30:19;17.10;99.90
29817;DHT22;16805;52.956;5.906;2023-09-19T17:32:47;17.00;99.90
29817;DHT22;16805;52.956;5.906;2023-09-19T17:35:14;17.00;99.90
29817;DHT22;16805;52.956;5.906;2023-09-19T17:37:44;17.00;99.90
29817;DHT22;16805;52.956;5.906;2023-09-19T17:40:10;17.00;99.90
29817;DHT22;16805;52.956;5.906;2023-09-19T17:42:40;17.00;99.90
29817;DHT22;16805;52.956;5.906;2023-09-19T17:45:09;17.00;99.90
29817;DHT22;16805;52.956;5.906;2023-09-19T17:47:42;17.00;99.90
29817;DHT22;16805;52.956;5.906;2023-09-19T17:50:09;17.00;99.90
29817;DHT22;16805;52.956;5.906;2023-09-19T17:52:41;16.90;99.90
29817;DHT22;16805;52.956;5.906;2023-09-19T17:55:11;17.00;99.90
29817;DHT22;16805;52.956;5.906;2023-09-19T17:57:43;16.90;99.90
29817;DHT22;16805;52.956;5.906;2023-09-19T18:00:11;16.90;99.90
29817;DHT22;16805;52.956;5.906;2023-09-19T18:02:38;16.90;99.90
29817;DHT22;16805;52.956;5.906;2023-09-19T18:05:04;17.00;99.90
29817;DHT22;16805;52.956;5.906;2023-09-19T18:07:33;16.90;99.90
29817;DHT22;16805;52.956;5.906;2023-09-19T18:10:14;16.90;99.90
29817;DHT22;16805;52.956;5.906;2023-09-19T18:12:44;16.90;99.90
29817;DHT22;16805;52.956;5.906;2023-09-19T18:15:19;16.90;99.90
29817;DHT22;16805;52.956;5.906;2023-09-19T18:17:55;16.90;99.90
29817;DHT22;16805;52.956;5.906;2023-09-19T18:20:47;16.90;99.90
29817;DHT22;16805;52.956;5.906;2023-09-19T18:23:58;16.90;99.90
29817;DHT22;16805;52.956;5.906;2023-09-19T18:26:38;16.90;99.90
29817;DHT22;16805;52.956;5.906;2023-09-19T18:29:12;16.90;99.90
29817;DHT22;16805;52.956;5.906;2023-09-19T18:31:54;16.90;99.90
29817;DHT22;16805;52.956;5.906;2023-09-19T18:34:23;16.90;99.90
29817;DHT22;16805;52.956;5.906;2023-09-19T18:36:51;16.90;99.90
29817;DHT22;16805;52.956;5.906;2023-09-19T18:39:24;16.90;99.90
29817;DHT22;16805;52.956;5.906;2023-09-19T18:41:59;16.90;99.90